x

Columbia River Bar - 20nm West Of Columbia River Mouth (46029) Wave Buoy

11:50pm - Sat 18th Nov 2017 All times are PST. -8 hours from GMT.

  • Sig Wave height 6.2ft
  • Swell Direction
  • Peak Period 8s
  • Average Period 5s
  • Wind
    22mph, 29mph gusts
  • Sea Temp 53°f
  • Air Temp 51°f
  • Sea Pressure 1018.5mb
  • Columbia River Bar - 20nm West Of Columbia River Mouth
  • Columbia River Bar - 20nm West Of Columbia River Mouth

More Historic Weather Station data

Upgrade to MSW Pro to gain access to the past 30 days of data for over 8000 Wavebouys and Weather Stations around the globe.

Join

Comparision Forecast

View Surf forecast
   
Sat 11/18 11:50pm 6ft 8s 5s 22 29 mph 1018.5mb 53f 51f
10:50pm 6ft 8s 5s 25 27 mph 1018.5mb 53f 51f
9:50pm 6ft 8s 5s 22 27 mph 1018.8mb 53f 51f
8:50pm 5ft 7s 5s 20 25 mph 1019.4mb 53f 51f
7:50pm 5ft 8s 5s 20 25 mph 1020mb 53f 51f
6:50pm 4.5ft 8s 5s 18 20 mph 1020.5mb 54f 51f
5:50pm 4.5ft 8s 5s 16 18 mph 1020.7mb 53f 51f
4:50pm 4.5ft 8s 5s 16 20 mph 1020.7mb 53f 51f
3:50pm 4.5ft 8s 5s 16 18 mph 1020.8mb 53f 51f
2:50pm 4.5ft 8s 6s 13 16 mph 1021.1mb 53f 51f
1:50pm 4.5ft 8s 5s 16 18 mph 1021.6mb 53f 51f
12:50pm 4.5ft 8s 5s 13 16 mph 1022.1mb 53f 51f
11:50am 4.5ft 8s 5s 13 16 mph 1023mb 53f 51f
10:50am 4.5ft 7s 5s 16 18 mph 1023.5mb 53f 51f
9:50am 4.5ft 8s 5s 13 18 mph 1023.9mb 53f 51f
8:50am 5ft 7s 5s 16 18 mph 1024.2mb 53f 51f
7:50am 4.5ft 8s 5s 16 20 mph 1024.4mb 53f 51f
6:50am 5ft 9s 5s 20 22 mph 1024.3mb 53f 51f
5:50am 5ft 7s 5s 20 25 mph 1024.6mb 53f 51f
4:50am 5ft 8s 5s 13 18 mph 1024.9mb 53f 51f
3:50am 5ft 8s 5s 11 13 mph 1025.2mb 53f 50f
2:50am 5ft 8s 6s 11 13 mph 1025.7mb 53f 51f
1:50am 5ft 9s 6s 16 18 mph 1025.7mb 53f 52f
12:50am 5.5ft 9s 6s 18 22 mph 1025.9mb 53f 52f
Fri 11/17 11:50pm 5ft 8s 6s 18 20 mph 1025.9mb 53f 52f
10:50pm 5.5ft 9s 6s 16 18 mph 1025.9mb 53f 52f
9:50pm 6ft 8s 6s 11 13 mph 1025.8mb 53f 50f
8:50pm 6ft 8s 6s 13 16 mph 1025.5mb 53f 51f
7:50pm 6ft 8s 6s 11 16 mph 1025.4mb 53f 51f
6:50pm 6ft 8s 6s 11 13 mph 1025.3mb 53f 50f
5:50pm 6ft 8s 6s 13 16 mph 1024.7mb 53f 51f
4:50pm 6ft 8s 6s 13 16 mph 1024.3mb 53f 51f
3:50pm 6.5ft 8s 6s 11 16 mph 1023.6mb 53f 52f
2:50pm 7ft 8s 6s 16 18 mph 1023mb 53f 52f
1:50pm 7.5ft 9s 7s 16 18 mph 1022.3mb 53f 51f
12:50pm 7ft 8s 6s 13 16 mph 1021.7mb 53f 51f
11:50am 7ft 7s 6s 9 11 mph 1021mb 53f 50f
10:50am 7ft 8s 6s 9 11 mph 1020.3mb 53f 49f
9:50am 7ft 8s 6s 11 13 mph 1019.4mb 53f 48f
8:50am 8ft 9s 6s 18 20 mph 1018mb 53f 50f
7:50am 7.5ft 7s 6s 18 22 mph 1016.8mb 53f 50f
6:50am 8ft 8s 6s 20 25 mph 1015.6mb 53f 50f
5:50am 7.5ft 10s 7s 20 25 mph 1014.6mb 53f 51f
4:50am 8ft 8s 6s 25 31 mph 1013.7mb 53f 50f
3:50am 7ft 9s 6s 20 25 mph 1012.8mb 53f 51f
2:50am 7ft 7s 6s 25 36 mph 1012.1mb 53f 50f
1:50am 7.5ft 9s 6s 20 27 mph 1010.9mb 53f 51f
12:50am 8ft 9s 6s 22 27 mph 1009.9mb 53f 51f
Thu 11/16 11:50pm 7ft 10s 6s 22 29 mph 1009mb 53f 50f
10:50pm 7.5ft 9s 6s 18 20 mph 1008.3mb 53f 50f
9:50pm 7.5ft 11s 6s 16 20 mph 1007.6mb 54f 51f
8:50pm 7ft 11s 6s 18 22 mph 1006.8mb 54f 50f
7:50pm 6.5ft 11s 6s 18 22 mph 1006.3mb 54f 51f
5:50pm 6.5ft 8s 6s 18 22 mph 1005.3mb 54f 50f
4:50pm 7ft 8s 6s 16 20 mph 1005mb 54f 49f
3:50pm 7.5ft 8s 6s 20 29 mph 1004.7mb 54f 48f
2:50pm 8ft 10s 6s 22 29 mph 1003.6mb 54f 50f
1:50pm 8ft 9s 7s 13 20 mph 1003.5mb 54f 50f
12:50pm 7.5ft 9s 7s 18 25 mph 1003mb 53f 50f
11:50am 8ft 8s 7s 18 22 mph 1003mb 53f 51f
10:50am 8ft 9s 7s 11 13 mph 1003.1mb 53f 49f
9:50am 7.5ft 11s 7s 7 9 mph 1003.1mb 53f 47f
8:50am 9ft 11s 7s 18 25 mph 1002.6mb 53f 47f
7:50am 9ft 10s 7s 11 13 mph 1002.6mb 53f 46f
6:50am 8ft 10s 6s 16 20 mph 1001.9mb 53f 47f
5:50am 9ft 10s 7s 11 13 mph 1002mb 54f 49f
4:50am 9ft 9s 7s 16 22 mph 1001.3mb 53f 49f
3:50am 9ft 10s 7s 18 20 mph 1001.4mb 53f 50f
2:50am 9ft 12s 8s 18 20 mph 1001.3mb 53f 49f
1:50am 9ft 10s 7s 13 18 mph 1001.1mb 53f 48f
12:50am 10ft 9s 8s 18 22 mph 1000.7mb 53f 49f
Wed 11/15 11:50pm 10ft 10s 8s 16 20 mph 1000.5mb 53f 46f
10:50pm 11ft 10s 8s 20 31 mph 999.8mb 53f 51f
9:50pm 10.5ft 10s 8s 16 18 mph 999.7mb 53f 50f
8:50pm 11ft 9s 8s 13 18 mph 999.7mb 53f 50f
7:50pm 12ft 11s 8s 9 16 mph 999.8mb 53f 50f
6:50pm 11.5ft 9s 8s 11 16 mph 1000.3mb 53f 51f
5:50pm 13ft 9s 8s 13 18 mph 1000.4mb 53f 51f
4:50pm 12.5ft 10s 8s 7 11 mph 1001.2mb 53f 49f
3:50pm 12ft 10s 8s 22 34 mph 1001.9mb 53f 49f
2:50pm 11.5ft 10s 7s 20 29 mph 1001.9mb 53f 50f
1:50pm 13.5ft 10s 8s 20 29 mph 1002.1mb 53f 52f
12:50pm 13.5ft 10s 8s 18 22 mph 1002.6mb 54f 52f
11:50am 16ft 10s 8s 20 25 mph 1002.9mb 54f 53f
10:50am 13.5ft 10s 8s 16 20 mph 1003.7mb 54f 52f
9:50am 15ft 10s 8s 11 18 mph 1003.7mb 54f 51f